Terminal Aerodrome Forecast
Issued by NWS Jackson, KY

Home | Current Version | Previous Version | Text Only | Print | Product List | Glossary On
Versions: 1 2 3 4 5 6 7 8 9 10 11 12
000
FTUS43 KJKL 061725
TAFLOZ
TAF
KLOZ 061725Z 0618/0718 VRB05KT P6SM SCT060
     FM070200 VRB03KT P6SM FEW150
     FM071600 VRB04KT P6SM SCT060=

USA.gov is the U.S. government's official web portal to all federal, state and local government web resources and services.